sensor_id;sensor_type;location;lat;lon;timestamp;P1;durP1;ratioP1;P2;durP2;ratioP2
5981;SDS011;3018;48.730;9.336;2024-01-06T00:01:51;8.73;;;3.58;;
5981;SDS011;3018;48.730;9.336;2024-01-06T00:04:18;2.90;;;2.70;;
5981;SDS011;3018;48.730;9.336;2024-01-06T00:06:45;3.63;;;2.58;;
5981;SDS011;3018;48.730;9.336;2024-01-06T00:09:11;4.35;;;2.90;;
5981;SDS011;3018;48.730;9.336;2024-01-06T00:11:37;3.80;;;3.05;;
5981;SDS011;3018;48.730;9.336;2024-01-06T00:14:03;7.38;;;2.67;;
5981;SDS011;3018;48.730;9.336;2024-01-06T00:16:30;3.03;;;2.55;;
5981;SDS011;3018;48.730;9.336;2024-01-06T00:18:56;3.13;;;2.78;;
5981;SDS011;3018;48.730;9.336;2024-01-06T00:21:24;3.55;;;2.65;;
5981;SDS011;3018;48.730;9.336;2024-01-06T00:23:50;6.18;;;3.00;;
5981;SDS011;3018;48.730;9.336;2024-01-06T00:26:16;6.05;;;2.65;;
5981;SDS011;3018;48.730;9.336;2024-01-06T00:28:42;4.13;;;2.47;;
5981;SDS011;3018;48.730;9.336;2024-01-06T00:31:09;3.83;;;2.50;;
5981;SDS011;3018;48.730;9.336;2024-01-06T00:33:35;3.90;;;2.47;;
5981;SDS011;3018;48.730;9.336;2024-01-06T00:36:01;2.83;;;2.63;;
5981;SDS011;3018;48.730;9.336;2024-01-06T00:38:29;4.43;;;2.72;;
5981;SDS011;3018;48.730;9.336;2024-01-06T00:40:55;5.65;;;3.00;;
5981;SDS011;3018;48.730;9.336;2024-01-06T00:43:21;9.30;;;3.15;;
5981;SDS011;3018;48.730;9.336;2024-01-06T00:45:47;4.05;;;2.95;;
5981;SDS011;3018;48.730;9.336;2024-01-06T00:48:14;4.90;;;2.90;;
5981;SDS011;3018;48.730;9.336;2024-01-06T00:50:40;5.15;;;3.13;;
5981;SDS011;3018;48.730;9.336;2024-01-06T00:53:06;6.38;;;3.15;;
5981;SDS011;3018;48.730;9.336;2024-01-06T00:55:34;5.38;;;3.28;;
5981;SDS011;3018;48.730;9.336;2024-01-06T00:58:00;3.20;;;2.75;;
5981;SDS011;3018;48.730;9.336;2024-01-06T01:00:26;4.32;;;3.00;;
5981;SDS011;3018;48.730;9.336;2024-01-06T01:02:53;5.57;;;3.30;;
5981;SDS011;3018;48.730;9.336;2024-01-06T01:05:19;4.22;;;2.92;;
5981;SDS011;3018;48.730;9.336;2024-01-06T01:07:45;6.32;;;2.90;;
5981;SDS011;3018;48.730;9.336;2024-01-06T01:10:11;3.47;;;2.75;;
5981;SDS011;3018;48.730;9.336;2024-01-06T01:12:39;2.80;;;2.60;;
5981;SDS011;3018;48.730;9.336;2024-01-06T01:15:06;4.88;;;2.75;;
5981;SDS011;3018;48.730;9.336;2024-01-06T01:17:32;2.70;;;2.50;;
5981;SDS011;3018;48.730;9.336;2024-01-06T01:19:58;4.47;;;2.33;;
5981;SDS011;3018;48.730;9.336;2024-01-06T01:22:25;4.47;;;3.05;;
5981;SDS011;3018;48.730;9.336;2024-01-06T01:24:51;4.75;;;2.83;;
5981;SDS011;3018;48.730;9.336;2024-01-06T01:27:17;4.63;;;3.03;;
5981;SDS011;3018;48.730;9.336;2024-01-06T01:29:45;2.70;;;2.50;;
5981;SDS011;3018;48.730;9.336;2024-01-06T01:32:13;3.97;;;2.80;;
5981;SDS011;3018;48.730;9.336;2024-01-06T01:34:39;5.07;;;2.63;;
5981;SDS011;3018;48.730;9.336;2024-01-06T01:37:06;4.43;;;2.75;;
5981;SDS011;3018;48.730;9.336;2024-01-06T01:39:32;6.53;;;2.30;;
5981;SDS011;3018;48.730;9.336;2024-01-06T01:41:59;3.63;;;2.65;;
5981;SDS011;3018;48.730;9.336;2024-01-06T01:44:25;3.22;;;2.90;;
5981;SDS011;3018;48.730;9.336;2024-01-06T01:46:53;2.40;;;2.10;;
5981;SDS011;3018;48.730;9.336;2024-01-06T01:49:19;4.50;;;2.35;;
5981;SDS011;3018;48.730;9.336;2024-01-06T01:51:45;11.55;;;2.83;;
5981;SDS011;3018;48.730;9.336;2024-01-06T01:54:12;3.13;;;2.58;;
5981;SDS011;3018;48.730;9.336;2024-01-06T01:56:38;3.55;;;2.50;;
5981;SDS011;3018;48.730;9.336;2024-01-06T01:59:06;2.90;;;2.10;;
5981;SDS011;3018;48.730;9.336;2024-01-06T02:01:33;3.88;;;2.30;;
5981;SDS011;3018;48.730;9.336;2024-01-06T02:04:01;3.30;;;2.05;;
5981;SDS011;3018;48.730;9.336;2024-01-06T02:06:27;2.83;;;2.33;;
5981;SDS011;3018;48.730;9.336;2024-01-06T02:08:53;1.88;;;1.77;;
5981;SDS011;3018;48.730;9.336;2024-01-06T02:11:20;3.03;;;2.08;;
5981;SDS011;3018;48.730;9.336;2024-01-06T02:13:46;2.33;;;2.13;;
5981;SDS011;3018;48.730;9.336;2024-01-06T02:16:12;5.75;;;2.75;;
5981;SDS011;3018;48.730;9.336;2024-01-06T02:18:38;5.82;;;3.25;;
5981;SDS011;3018;48.730;9.336;2024-01-06T02:21:06;4.35;;;3.20;;
5981;SDS011;3018;48.730;9.336;2024-01-06T02:23:34;3.83;;;3.28;;
5981;SDS011;3018;48.730;9.336;2024-01-06T02:26:02;6.32;;;4.07;;
5981;SDS011;3018;48.730;9.336;2024-01-06T02:28:28;5.18;;;3.50;;
5981;SDS011;3018;48.730;9.336;2024-01-06T02:30:54;5.03;;;3.17;;
5981;SDS011;3018;48.730;9.336;2024-01-06T02:33:21;4.10;;;3.70;;
5981;SDS011;3018;48.730;9.336;2024-01-06T02:35:49;6.70;;;3.40;;
5981;SDS011;3018;48.730;9.336;2024-01-06T02:38:15;3.53;;;3.25;;
5981;SDS011;3018;48.730;9.336;2024-01-06T02:40:43;2.97;;;2.67;;
5981;SDS011;3018;48.730;9.336;2024-01-06T02:43:09;7.95;;;2.88;;
5981;SDS011;3018;48.730;9.336;2024-01-06T02:45:35;2.83;;;2.55;;
5981;SDS011;3018;48.730;9.336;2024-01-06T02:48:01;5.28;;;2.90;;
5981;SDS011;3018;48.730;9.336;2024-01-06T02:50:28;3.47;;;2.17;;
5981;SDS011;3018;48.730;9.336;2024-01-06T02:52:54;4.50;;;1.90;;
5981;SDS011;3018;48.730;9.336;2024-01-06T02:55:20;6.03;;;2.08;;
5981;SDS011;3018;48.730;9.336;2024-01-06T02:57:48;2.78;;;2.58;;
5981;SDS011;3018;48.730;9.336;2024-01-06T03:00:14;5.70;;;2.40;;
5981;SDS011;3018;48.730;9.336;2024-01-06T03:02:41;1.98;;;1.83;;
5981;SDS011;3018;48.730;9.336;2024-01-06T03:05:08;2.50;;;2.30;;
5981;SDS011;3018;48.730;9.336;2024-01-06T03:07:34;2.42;;;2.22;;
5981;SDS011;3018;48.730;9.336;2024-01-06T03:10:01;7.22;;;2.50;;
5981;SDS011;3018;48.730;9.336;2024-01-06T03:12:27;4.63;;;1.73;;
5981;SDS011;3018;48.730;9.336;2024-01-06T03:14:55;2.42;;;2.00;;
5981;SDS011;3018;48.730;9.336;2024-01-06T03:17:21;3.97;;;1.75;;
5981;SDS011;3018;48.730;9.336;2024-01-06T03:19:47;3.38;;;1.88;;
5981;SDS011;3018;48.730;9.336;2024-01-06T03:22:13;3.53;;;1.92;;
5981;SDS011;3018;48.730;9.336;2024-01-06T03:24:40;2.03;;;1.92;;
5981;SDS011;3018;48.730;9.336;2024-01-06T03:27:06;2.33;;;1.98;;
5981;SDS011;3018;48.730;9.336;2024-01-06T03:29:33;3.85;;;2.05;;
5981;SDS011;3018;48.730;9.336;2024-01-06T03:32:01;3.88;;;1.90;;
5981;SDS011;3018;48.730;9.336;2024-01-06T03:34:27;2.03;;;1.85;;
5981;SDS011;3018;48.730;9.336;2024-01-06T03:36:54;2.45;;;1.80;;
5981;SDS011;3018;48.730;9.336;2024-01-06T03:39:20;2.10;;;2.00;;
5981;SDS011;3018;48.730;9.336;2024-01-06T03:41:47;4.45;;;2.00;;
5981;SDS011;3018;48.730;9.336;2024-01-06T03:44:14;3.13;;;1.90;;
5981;SDS011;3018;48.730;9.336;2024-01-06T03:46:40;2.00;;;1.80;;
5981;SDS011;3018;48.730;9.336;2024-01-06T03:49:08;3.95;;;1.60;;
5981;SDS011;3018;48.730;9.336;2024-01-06T03:51:34;3.30;;;1.73;;
5981;SDS011;3018;48.730;9.336;2024-01-06T03:54:00;2.17;;;1.60;;
5981;SDS011;3018;48.730;9.336;2024-01-06T03:56:26;2.38;;;1.40;;
5981;SDS011;3018;48.730;9.336;2024-01-06T03:58:53;1.85;;;1.52;;
5981;SDS011;3018;48.730;9.336;2024-01-06T04:01:19;3.60;;;1.83;;
5981;SDS011;3018;48.730;9.336;2024-01-06T04:03:46;3.15;;;1.70;;
5981;SDS011;3018;48.730;9.336;2024-01-06T04:06:13;1.60;;;1.42;;
5981;SDS011;3018;48.730;9.336;2024-01-06T04:08:40;1.50;;;1.40;;
5981;SDS011;3018;48.730;9.336;2024-01-06T04:11:06;2.20;;;1.63;;
5981;SDS011;3018;48.730;9.336;2024-01-06T04:13:32;2.35;;;1.30;;
5981;SDS011;3018;48.730;9.336;2024-01-06T04:15:59;1.80;;;1.45;;
5981;SDS011;3018;48.730;9.336;2024-01-06T04:18:25;2.78;;;1.40;;
5981;SDS011;3018;48.730;9.336;2024-01-06T04:20:51;1.85;;;1.25;;
5981;SDS011;3018;48.730;9.336;2024-01-06T04:23:19;3.53;;;1.70;;
5981;SDS011;3018;48.730;9.336;2024-01-06T04:25:45;1.60;;;1.45;;
5981;SDS011;3018;48.730;9.336;2024-01-06T04:28:11;2.85;;;1.85;;
5981;SDS011;3018;48.730;9.336;2024-01-06T04:30:37;1.48;;;1.38;;
5981;SDS011;3018;48.730;9.336;2024-01-06T04:33:04;1.60;;;1.50;;
5981;SDS011;3018;48.730;9.336;2024-01-06T04:35:30;2.17;;;1.50;;
5981;SDS011;3018;48.730;9.336;2024-01-06T04:37:56;2.60;;;1.40;;
5981;SDS011;3018;48.730;9.336;2024-01-06T04:40:24;1.33;;;1.25;;
5981;SDS011;3018;48.730;9.336;2024-01-06T04:42:50;2.67;;;1.38;;
5981;SDS011;3018;48.730;9.336;2024-01-06T04:45:16;2.08;;;1.25;;
5981;SDS011;3018;48.730;9.336;2024-01-06T04:47:44;1.52;;;1.30;;
5981;SDS011;3018;48.730;9.336;2024-01-06T04:50:10;3.90;;;1.70;;
5981;SDS011;3018;48.730;9.336;2024-01-06T04:52:37;2.22;;;1.73;;
5981;SDS011;3018;48.730;9.336;2024-01-06T04:55:03;2.38;;;1.20;;
5981;SDS011;3018;48.730;9.336;2024-01-06T04:57:31;2.75;;;1.35;;
5981;SDS011;3018;48.730;9.336;2024-01-06T04:59:57;2.70;;;1.40;;
5981;SDS011;3018;48.730;9.336;2024-01-06T05:02:24;1.63;;;1.00;;
5981;SDS011;3018;48.730;9.336;2024-01-06T05:04:51;1.48;;;1.15;;
5981;SDS011;3018;48.730;9.336;2024-01-06T05:07:17;3.80;;;1.58;;
5981;SDS011;3018;48.730;9.336;2024-01-06T05:09:43;3.63;;;1.40;;
5981;SDS011;3018;48.730;9.336;2024-01-06T05:12:09;3.13;;;1.80;;
5981;SDS011;3018;48.730;9.336;2024-01-06T05:14:37;3.03;;;1.52;;
5981;SDS011;3018;48.730;9.336;2024-01-06T05:17:03;1.80;;;1.17;;
5981;SDS011;3018;48.730;9.336;2024-01-06T05:19:31;1.35;;;1.23;;
5981;SDS011;3018;48.730;9.336;2024-01-06T05:21:57;6.93;;;1.52;;
5981;SDS011;3018;48.730;9.336;2024-01-06T05:24:23;3.33;;;1.23;;
5981;SDS011;3018;48.730;9.336;2024-01-06T05:26:50;1.67;;;1.30;;
5981;SDS011;3018;48.730;9.336;2024-01-06T05:29:16;3.15;;;1.40;;
5981;SDS011;3018;48.730;9.336;2024-01-06T05:31:44;2.22;;;1.40;;
5981;SDS011;3018;48.730;9.336;2024-01-06T05:34:12;2.63;;;1.20;;
5981;SDS011;3018;48.730;9.336;2024-01-06T05:36:38;3.58;;;1.48;;
5981;SDS011;3018;48.730;9.336;2024-01-06T05:39:05;3.92;;;1.30;;
5981;SDS011;3018;48.730;9.336;2024-01-06T05:41:36;2.65;;;1.00;;
5981;SDS011;3018;48.730;9.336;2024-01-06T05:44:02;1.05;;;0.90;;
5981;SDS011;3018;48.730;9.336;2024-01-06T05:46:29;2.47;;;1.35;;
5981;SDS011;3018;48.730;9.336;2024-01-06T05:48:57;3.60;;;1.33;;
5981;SDS011;3018;48.730;9.336;2024-01-06T05:51:24;2.63;;;1.40;;
5981;SDS011;3018;48.730;9.336;2024-01-06T05:53:51;5.15;;;1.55;;
5981;SDS011;3018;48.730;9.336;2024-01-06T05:56:23;2.30;;;1.27;;
5981;SDS011;3018;48.730;9.336;2024-01-06T05:58:50;3.35;;;1.52;;
5981;SDS011;3018;48.730;9.336;2024-01-06T06:01:16;4.10;;;1.50;;
5981;SDS011;3018;48.730;9.336;2024-01-06T06:03:43;2.42;;;1.20;;
5981;SDS011;3018;48.730;9.336;2024-01-06T06:06:10;1.75;;;1.10;;
5981;SDS011;3018;48.730;9.336;2024-01-06T06:08:37;4.38;;;1.02;;
5981;SDS011;3018;48.730;9.336;2024-01-06T06:11:03;2.38;;;1.13;;
5981;SDS011;3018;48.730;9.336;2024-01-06T06:13:35;3.58;;;1.15;;
5981;SDS011;3018;48.730;9.336;2024-01-06T06:16:02;3.78;;;1.25;;
5981;SDS011;3018;48.730;9.336;2024-01-06T06:18:28;4.00;;;1.10;;
5981;SDS011;3018;48.730;9.336;2024-01-06T06:20:54;4.80;;;1.17;;
5981;SDS011;3018;48.730;9.336;2024-01-06T06:23:22;4.50;;;1.08;;
5981;SDS011;3018;48.730;9.336;2024-01-06T06:25:48;2.70;;;1.00;;
5981;SDS011;3018;48.730;9.336;2024-01-06T06:28:14;3.58;;;1.52;;
5981;SDS011;3018;48.730;9.336;2024-01-06T06:30:41;3.97;;;1.48;;
5981;SDS011;3018;48.730;9.336;2024-01-06T06:33:08;4.65;;;1.17;;
5981;SDS011;3018;48.730;9.336;2024-01-06T06:35:34;2.95;;;1.80;;
5981;SDS011;3018;48.730;9.336;2024-01-06T06:38:00;3.75;;;2.58;;
5981;SDS011;3018;48.730;9.336;2024-01-06T06:40:28;3.33;;;2.30;;
5981;SDS011;3018;48.730;9.336;2024-01-06T06:42:55;4.50;;;2.38;;
5981;SDS011;3018;48.730;9.336;2024-01-06T06:45:21;3.28;;;2.60;;
5981;SDS011;3018;48.730;9.336;2024-01-06T06:47:48;2.75;;;2.47;;
5981;SDS011;3018;48.730;9.336;2024-01-06T06:50:15;4.28;;;2.80;;
5981;SDS011;3018;48.730;9.336;2024-01-06T06:52:41;5.35;;;3.17;;
5981;SDS011;3018;48.730;9.336;2024-01-06T06:55:08;4.95;;;2.67;;
5981;SDS011;3018;48.730;9.336;2024-01-06T06:57:35;7.38;;;2.65;;
5981;SDS011;3018;48.730;9.336;2024-01-06T07:00:02;6.10;;;2.70;;
5981;SDS011;3018;48.730;9.336;2024-01-06T07:02:28;4.85;;;2.47;;
5981;SDS011;3018;48.730;9.336;2024-01-06T07:04:54;5.47;;;2.40;;
5981;SDS011;3018;48.730;9.336;2024-01-06T07:07:21;5.68;;;2.38;;
5981;SDS011;3018;48.730;9.336;2024-01-06T07:09:47;2.72;;;2.10;;
5981;SDS011;3018;48.730;9.336;2024-01-06T07:12:13;3.70;;;2.08;;
5981;SDS011;3018;48.730;9.336;2024-01-06T07:14:41;6.03;;;2.03;;
5981;SDS011;3018;48.730;9.336;2024-01-06T07:17:07;3.03;;;1.88;;
5981;SDS011;3018;48.730;9.336;2024-01-06T07:19:34;4.35;;;2.00;;
5981;SDS011;3018;48.730;9.336;2024-01-06T07:22:00;3.03;;;2.38;;
5981;SDS011;3018;48.730;9.336;2024-01-06T07:24:26;4.70;;;2.00;;
5981;SDS011;3018;48.730;9.336;2024-01-06T07:26:52;4.65;;;2.13;;
5981;SDS011;3018;48.730;9.336;2024-01-06T07:29:19;2.88;;;1.77;;
5981;SDS011;3018;48.730;9.336;2024-01-06T07:31:46;2.28;;;1.83;;
5981;SDS011;3018;48.730;9.336;2024-01-06T07:34:13;6.85;;;1.77;;
5981;SDS011;3018;48.730;9.336;2024-01-06T07:36:41;2.28;;;1.67;;
5981;SDS011;3018;48.730;9.336;2024-01-06T07:39:07;4.22;;;2.28;;
5981;SDS011;3018;48.730;9.336;2024-01-06T07:41:34;3.15;;;2.20;;
5981;SDS011;3018;48.730;9.336;2024-01-06T07:44:00;3.75;;;2.25;;
5981;SDS011;3018;48.730;9.336;2024-01-06T07:46:27;5.10;;;2.30;;
5981;SDS011;3018;48.730;9.336;2024-01-06T07:48:55;5.03;;;2.55;;
5981;SDS011;3018;48.730;9.336;2024-01-06T07:51:21;7.07;;;2.65;;
5981;SDS011;3018;48.730;9.336;2024-01-06T07:53:47;7.97;;;3.10;;
5981;SDS011;3018;48.730;9.336;2024-01-06T07:56:14;5.97;;;2.53;;
5981;SDS011;3018;48.730;9.336;2024-01-06T07:58:40;6.07;;;2.67;;
5981;SDS011;3018;48.730;9.336;2024-01-06T08:01:06;2.95;;;2.30;;
5981;SDS011;3018;48.730;9.336;2024-01-06T08:03:33;5.32;;;2.90;;
5981;SDS011;3018;48.730;9.336;2024-01-06T08:06:00;6.18;;;2.85;;
5981;SDS011;3018;48.730;9.336;2024-01-06T08:08:27;3.05;;;2.85;;
5981;SDS011;3018;48.730;9.336;2024-01-06T08:10:53;3.65;;;2.92;;
5981;SDS011;3018;48.730;9.336;2024-01-06T08:13:19;4.55;;;2.60;;
5981;SDS011;3018;48.730;9.336;2024-01-06T08:15:46;8.20;;;3.40;;
5981;SDS011;3018;48.730;9.336;2024-01-06T08:18:12;5.35;;;3.03;;
5981;SDS011;3018;48.730;9.336;2024-01-06T08:20:38;6.82;;;2.95;;
5981;SDS011;3018;48.730;9.336;2024-01-06T08:23:06;5.10;;;3.20;;
5981;SDS011;3018;48.730;9.336;2024-01-06T08:25:32;3.33;;;3.03;;
5981;SDS011;3018;48.730;9.336;2024-01-06T08:27:58;4.80;;;3.10;;
5981;SDS011;3018;48.730;9.336;2024-01-06T08:30:24;6.75;;;4.20;;
5981;SDS011;3018;48.730;9.336;2024-01-06T08:32:50;5.78;;;3.75;;
5981;SDS011;3018;48.730;9.336;2024-01-06T08:35:17;4.93;;;2.80;;
5981;SDS011;3018;48.730;9.336;2024-01-06T08:37:44;5.82;;;3.13;;
5981;SDS011;3018;48.730;9.336;2024-01-06T08:40:12;4.07;;;3.33;;
5981;SDS011;3018;48.730;9.336;2024-01-06T08:42:38;4.47;;;3.65;;
5981;SDS011;3018;48.730;9.336;2024-01-06T08:45:04;6.30;;;3.55;;
5981;SDS011;3018;48.730;9.336;2024-01-06T08:47:31;3.65;;;2.97;;
5981;SDS011;3018;48.730;9.336;2024-01-06T08:49:57;6.05;;;3.10;;
5981;SDS011;3018;48.730;9.336;2024-01-06T08:52:23;8.13;;;3.35;;
5981;SDS011;3018;48.730;9.336;2024-01-06T08:54:50;5.18;;;3.35;;
5981;SDS011;3018;48.730;9.336;2024-01-06T08:57:17;5.13;;;3.28;;
5981;SDS011;3018;48.730;9.336;2024-01-06T08:59:44;5.43;;;2.70;;
5981;SDS011;3018;48.730;9.336;2024-01-06T09:02:11;3.85;;;3.05;;
5981;SDS011;3018;48.730;9.336;2024-01-06T09:04:37;2.65;;;2.45;;
5981;SDS011;3018;48.730;9.336;2024-01-06T09:07:04;4.47;;;2.97;;
5981;SDS011;3018;48.730;9.336;2024-01-06T09:09:30;5.05;;;2.60;;
5981;SDS011;3018;48.730;9.336;2024-01-06T09:11:56;5.03;;;2.55;;
5981;SDS011;3018;48.730;9.336;2024-01-06T09:14:24;4.90;;;2.55;;
5981;SDS011;3018;48.730;9.336;2024-01-06T09:16:50;3.25;;;2.35;;
5981;SDS011;3018;48.730;9.336;2024-01-06T09:19:17;3.13;;;2.25;;
5981;SDS011;3018;48.730;9.336;2024-01-06T09:21:43;3.58;;;2.30;;
5981;SDS011;3018;48.730;9.336;2024-01-06T09:24:09;4.20;;;2.38;;
5981;SDS011;3018;48.730;9.336;2024-01-06T09:26:36;2.58;;;2.20;;
5981;SDS011;3018;48.730;9.336;2024-01-06T09:29:02;3.03;;;1.75;;
5981;SDS011;3018;48.730;9.336;2024-01-06T09:31:30;5.50;;;2.75;;
5981;SDS011;3018;48.730;9.336;2024-01-06T09:33:59;3.05;;;1.90;;
5981;SDS011;3018;48.730;9.336;2024-01-06T09:36:26;3.05;;;2.15;;
5981;SDS011;3018;48.730;9.336;2024-01-06T09:38:52;3.55;;;2.22;;
5981;SDS011;3018;48.730;9.336;2024-01-06T09:41:18;2.92;;;1.80;;
5981;SDS011;3018;48.730;9.336;2024-01-06T09:43:46;7.20;;;2.25;;
5981;SDS011;3018;48.730;9.336;2024-01-06T09:46:14;3.40;;;1.90;;
5981;SDS011;3018;48.730;9.336;2024-01-06T09:48:42;2.08;;;1.70;;
5981;SDS011;3018;48.730;9.336;2024-01-06T09:51:09;5.10;;;2.60;;
5981;SDS011;3018;48.730;9.336;2024-01-06T09:53:37;5.00;;;2.13;;
5981;SDS011;3018;48.730;9.336;2024-01-06T09:56:06;5.85;;;2.75;;
5981;SDS011;3018;48.730;9.336;2024-01-06T09:58:33;2.70;;;2.50;;
5981;SDS011;3018;48.730;9.336;2024-01-06T10:01:00;6.10;;;3.38;;
5981;SDS011;3018;48.730;9.336;2024-01-06T10:03:27;4.03;;;3.13;;
5981;SDS011;3018;48.730;9.336;2024-01-06T10:05:54;4.45;;;3.30;;
5981;SDS011;3018;48.730;9.336;2024-01-06T10:08:25;7.75;;;3.40;;
5981;SDS011;3018;48.730;9.336;2024-01-06T10:10:52;6.82;;;3.50;;
5981;SDS011;3018;48.730;9.336;2024-01-06T10:13:18;4.97;;;3.25;;
5981;SDS011;3018;48.730;9.336;2024-01-06T10:15:44;2.42;;;1.98;;
5981;SDS011;3018;48.730;9.336;2024-01-06T10:18:11;2.45;;;2.22;;
5981;SDS011;3018;48.730;9.336;2024-01-06T10:20:37;1.92;;;1.73;;
5981;SDS011;3018;48.730;9.336;2024-01-06T10:23:05;1.70;;;1.60;;
5981;SDS011;3018;48.730;9.336;2024-01-06T10:25:31;2.63;;;1.95;;
5981;SDS011;3018;48.730;9.336;2024-01-06T10:27:59;1.80;;;1.70;;
5981;SDS011;3018;48.730;9.336;2024-01-06T10:30:26;2.28;;;1.92;;
5981;SDS011;3018;48.730;9.336;2024-01-06T10:32:52;5.32;;;2.40;;
5981;SDS011;3018;48.730;9.336;2024-01-06T10:35:18;2.15;;;2.03;;
5981;SDS011;3018;48.730;9.336;2024-01-06T10:37:45;6.50;;;2.60;;
5981;SDS011;3018;48.730;9.336;2024-01-06T10:40:14;3.08;;;1.80;;
5981;SDS011;3018;48.730;9.336;2024-01-06T10:42:41;1.80;;;1.70;;
5981;SDS011;3018;48.730;9.336;2024-01-06T10:45:08;2.90;;;2.20;;
5981;SDS011;3018;48.730;9.336;2024-01-06T10:47:34;3.60;;;2.55;;
5981;SDS011;3018;48.730;9.336;2024-01-06T10:50:01;2.22;;;2.13;;
5981;SDS011;3018;48.730;9.336;2024-01-06T10:52:27;2.83;;;2.60;;
5981;SDS011;3018;48.730;9.336;2024-01-06T10:54:54;5.28;;;3.30;;
5981;SDS011;3018;48.730;9.336;2024-01-06T10:57:22;2.30;;;2.20;;
5981;SDS011;3018;48.730;9.336;2024-01-06T10:59:49;3.03;;;1.95;;
5981;SDS011;3018;48.730;9.336;2024-01-06T11:02:16;1.98;;;1.23;;
5981;SDS011;3018;48.730;9.336;2024-01-06T11:04:43;1.15;;;0.77;;
5981;SDS011;3018;48.730;9.336;2024-01-06T11:07:09;0.95;;;0.90;;
5981;SDS011;3018;48.730;9.336;2024-01-06T11:09:35;1.00;;;1.00;;
5981;SDS011;3018;48.730;9.336;2024-01-06T11:12:03;1.10;;;1.10;;
5981;SDS011;3018;48.730;9.336;2024-01-06T11:14:36;0.93;;;0.93;;
5981;SDS011;3018;48.730;9.336;2024-01-06T11:17:02;1.50;;;1.30;;
5981;SDS011;3018;48.730;9.336;2024-01-06T11:19:41;1.30;;;1.10;;
5981;SDS011;3018;48.730;9.336;2024-01-06T11:22:19;1.45;;;1.33;;
5981;SDS011;3018;48.730;9.336;2024-01-06T11:24:46;1.73;;;1.40;;
5981;SDS011;3018;48.730;9.336;2024-01-06T11:27:16;1.67;;;1.45;;
5981;SDS011;3018;48.730;9.336;2024-01-06T11:29:44;2.47;;;1.67;;
5981;SDS011;3018;48.730;9.336;2024-01-06T11:32:17;3.03;;;1.30;;
5981;SDS011;3018;48.730;9.336;2024-01-06T11:34:47;5.05;;;1.08;;
5981;SDS011;3018;48.730;9.336;2024-01-06T11:37:13;1.50;;;1.40;;
5981;SDS011;3018;48.730;9.336;2024-01-06T11:39:42;1.30;;;1.10;;
5981;SDS011;3018;48.730;9.336;2024-01-06T11:42:09;2.05;;;1.20;;
5981;SDS011;3018;48.730;9.336;2024-01-06T11:44:36;1.45;;;1.30;;
5981;SDS011;3018;48.730;9.336;2024-01-06T11:47:04;1.35;;;1.35;;
5981;SDS011;3018;48.730;9.336;2024-01-06T11:49:31;1.42;;;1.42;;
5981;SDS011;3018;48.730;9.336;2024-01-06T11:51:58;1.35;;;1.25;;
5981;SDS011;3018;48.730;9.336;2024-01-06T11:54:24;1.40;;;1.30;;
5981;SDS011;3018;48.730;9.336;2024-01-06T11:56:51;2.83;;;1.23;;
5981;SDS011;3018;48.730;9.336;2024-01-06T11:59:19;1.20;;;1.20;;
5981;SDS011;3018;48.730;9.336;2024-01-06T12:01:45;1.50;;;1.45;;
5981;SDS011;3018;48.730;9.336;2024-01-06T12:04:13;1.20;;;1.08;;
5981;SDS011;3018;48.730;9.336;2024-01-06T12:06:40;1.40;;;1.30;;
5981;SDS011;3018;48.730;9.336;2024-01-06T12:09:06;1.30;;;1.25;;
5981;SDS011;3018;48.730;9.336;2024-01-06T12:11:32;1.50;;;1.40;;
5981;SDS011;3018;48.730;9.336;2024-01-06T12:13:59;1.50;;;1.40;;
5981;SDS011;3018;48.730;9.336;2024-01-06T12:16:25;1.58;;;1.58;;
5981;SDS011;3018;48.730;9.336;2024-01-06T12:18:52;1.75;;;1.70;;
5981;SDS011;3018;48.730;9.336;2024-01-06T12:21:21;1.67;;;1.67;;
5981;SDS011;3018;48.730;9.336;2024-01-06T12:23:48;1.40;;;1.40;;
5981;SDS011;3018;48.730;9.336;2024-01-06T12:26:14;1.98;;;1.88;;
5981;SDS011;3018;48.730;9.336;2024-01-06T12:28:40;2.38;;;2.10;;
5981;SDS011;3018;48.730;9.336;2024-01-06T12:31:08;2.10;;;2.00;;
5981;SDS011;3018;48.730;9.336;2024-01-06T12:33:35;1.92;;;1.70;;
5981;SDS011;3018;48.730;9.336;2024-01-06T12:36:03;2.10;;;2.10;;
5981;SDS011;3018;48.730;9.336;2024-01-06T12:38:30;2.65;;;2.55;;
5981;SDS011;3018;48.730;9.336;2024-01-06T12:40:56;2.28;;;2.10;;
5981;SDS011;3018;48.730;9.336;2024-01-06T12:43:23;2.53;;;2.42;;
5981;SDS011;3018;48.730;9.336;2024-01-06T12:45:49;2.50;;;2.30;;
5981;SDS011;3018;48.730;9.336;2024-01-06T12:48:17;2.70;;;2.50;;
5981;SDS011;3018;48.730;9.336;2024-01-06T12:50:43;2.78;;;2.67;;
5981;SDS011;3018;48.730;9.336;2024-01-06T12:53:10;2.47;;;2.38;;
5981;SDS011;3018;48.730;9.336;2024-01-06T12:55:38;4.07;;;2.35;;
5981;SDS011;3018;48.730;9.336;2024-01-06T12:58:05;3.83;;;2.45;;
5981;SDS011;3018;48.730;9.336;2024-01-06T13:00:31;2.30;;;2.30;;
5981;SDS011;3018;48.730;9.336;2024-01-06T13:02:58;2.88;;;2.72;;
5981;SDS011;3018;48.730;9.336;2024-01-06T13:05:24;3.85;;;2.10;;
5981;SDS011;3018;48.730;9.336;2024-01-06T13:07:50;2.38;;;2.28;;
5981;SDS011;3018;48.730;9.336;2024-01-06T13:10:16;1.90;;;1.90;;
5981;SDS011;3018;48.730;9.336;2024-01-06T13:12:44;2.38;;;2.28;;
5981;SDS011;3018;48.730;9.336;2024-01-06T13:15:11;2.45;;;2.20;;
5981;SDS011;3018;48.730;9.336;2024-01-06T13:17:37;2.42;;;2.33;;
5981;SDS011;3018;48.730;9.336;2024-01-06T13:20:03;2.25;;;2.25;;
5981;SDS011;3018;48.730;9.336;2024-01-06T13:22:30;2.67;;;2.58;;
5981;SDS011;3018;48.730;9.336;2024-01-06T13:24:56;2.85;;;2.63;;
5981;SDS011;3018;48.730;9.336;2024-01-06T13:27:23;2.53;;;2.35;;
5981;SDS011;3018;48.730;9.336;2024-01-06T13:29:50;2.25;;;2.15;;
5981;SDS011;3018;48.730;9.336;2024-01-06T13:32:17;3.28;;;3.08;;
5981;SDS011;3018;48.730;9.336;2024-01-06T13:34:44;2.67;;;2.58;;
5981;SDS011;3018;48.730;9.336;2024-01-06T13:37:10;2.97;;;2.78;;
5981;SDS011;3018;48.730;9.336;2024-01-06T13:39:36;2.50;;;2.40;;
5981;SDS011;3018;48.730;9.336;2024-01-06T13:42:03;2.70;;;2.60;;
5981;SDS011;3018;48.730;9.336;2024-01-06T13:44:29;3.20;;;3.10;;
5981;SDS011;3018;48.730;9.336;2024-01-06T13:46:57;3.65;;;3.45;;
5981;SDS011;3018;48.730;9.336;2024-01-06T13:49:23;4.13;;;3.80;;
5981;SDS011;3018;48.730;9.336;2024-01-06T13:51:49;4.07;;;3.60;;
5981;SDS011;3018;48.730;9.336;2024-01-06T13:54:16;3.53;;;3.33;;
5981;SDS011;3018;48.730;9.336;2024-01-06T13:56:42;3.97;;;3.67;;
5981;SDS011;3018;48.730;9.336;2024-01-06T13:59:08;5.35;;;4.43;;
5981;SDS011;3018;48.730;9.336;2024-01-06T14:01:35;6.35;;;5.50;;
5981;SDS011;3018;48.730;9.336;2024-01-06T14:04:02;4.18;;;3.88;;
5981;SDS011;3018;48.730;9.336;2024-01-06T14:06:30;4.40;;;4.00;;
5981;SDS011;3018;48.730;9.336;2024-01-06T14:08:57;5.88;;;4.18;;
5981;SDS011;3018;48.730;9.336;2024-01-06T14:11:23;4.80;;;4.40;;
5981;SDS011;3018;48.730;9.336;2024-01-06T14:13:50;4.35;;;4.03;;
5981;SDS011;3018;48.730;9.336;2024-01-06T14:16:16;4.43;;;4.10;;
5981;SDS011;3018;48.730;9.336;2024-01-06T14:18:43;4.82;;;4.32;;
5981;SDS011;3018;48.730;9.336;2024-01-06T14:21:10;4.30;;;4.00;;
5981;SDS011;3018;48.730;9.336;2024-01-06T14:23:39;4.63;;;4.05;;
5981;SDS011;3018;48.730;9.336;2024-01-06T14:26:05;5.47;;;5.05;;
5981;SDS011;3018;48.730;9.336;2024-01-06T14:28:32;5.00;;;4.60;;
5981;SDS011;3018;48.730;9.336;2024-01-06T14:30:58;5.05;;;4.65;;
5981;SDS011;3018;48.730;9.336;2024-01-06T14:33:24;4.88;;;4.57;;
5981;SDS011;3018;48.730;9.336;2024-01-06T14:35:52;5.13;;;4.63;;
5981;SDS011;3018;48.730;9.336;2024-01-06T14:38:19;5.22;;;4.72;;
5981;SDS011;3018;48.730;9.336;2024-01-06T14:40:46;5.40;;;5.00;;
5981;SDS011;3018;48.730;9.336;2024-01-06T14:43:12;4.72;;;4.32;;
5981;SDS011;3018;48.730;9.336;2024-01-06T14:45:38;4.97;;;4.68;;
5981;SDS011;3018;48.730;9.336;2024-01-06T14:48:05;4.53;;;4.32;;
5981;SDS011;3018;48.730;9.336;2024-01-06T14:50:31;4.20;;;4.00;;
5981;SDS011;3018;48.730;9.336;2024-01-06T14:52:57;4.50;;;4.15;;
5981;SDS011;3018;48.730;9.336;2024-01-06T14:55:25;4.75;;;4.55;;
5981;SDS011;3018;48.730;9.336;2024-01-06T14:57:51;7.28;;;5.50;;
5981;SDS011;3018;48.730;9.336;2024-01-06T15:00:17;5.55;;;5.03;;
5981;SDS011;3018;48.730;9.336;2024-01-06T15:02:44;5.28;;;4.88;;
5981;SDS011;3018;48.730;9.336;2024-01-06T15:05:11;5.47;;;5.05;;
5981;SDS011;3018;48.730;9.336;2024-01-06T15:07:37;5.57;;;5.07;;
5981;SDS011;3018;48.730;9.336;2024-01-06T15:10:04;5.38;;;4.97;;
5981;SDS011;3018;48.730;9.336;2024-01-06T15:12:31;5.45;;;5.05;;